createdAt,value
2022-09-09T00:00:00.000Z,1009.03
2022-09-09T00:02:00.000Z,1009.03
2022-09-09T00:04:00.000Z,1009.03
2022-09-09T00:06:00.000Z,1009.03
2022-09-09T00:08:00.000Z,1009.03
2022-09-09T00:10:00.000Z,1009.03
2022-09-09T00:12:00.000Z,1009.03
2022-09-09T00:14:00.000Z,1009.03
2022-09-09T00:16:00.000Z,1009.03
2022-09-09T00:18:00.000Z,1009.03
2022-09-09T00:20:00.000Z,1009.03
2022-09-09T00:22:00.000Z,1008.69
2022-09-09T00:24:00.000Z,1008.69
2022-09-09T00:26:00.000Z,1009.03
2022-09-09T00:28:00.000Z,1009.03
2022-09-09T00:30:00.000Z,1009.03
2022-09-09T00:32:00.000Z,1008.69
2022-09-09T00:34:00.000Z,1008.69
2022-09-09T00:36:00.000Z,1009.03
2022-09-09T00:38:00.000Z,1009.03
2022-09-09T00:40:00.000Z,1009.03
2022-09-09T00:42:00.000Z,1009.03
2022-09-09T00:44:00.000Z,1009.03
2022-09-09T00:46:00.000Z,1008.69
2022-09-09T00:48:00.000Z,1008.69
2022-09-09T00:50:00.000Z,1008.69
2022-09-09T00:52:00.000Z,1008.69
2022-09-09T00:54:00.000Z,1008.69
2022-09-09T00:56:00.000Z,1008.69
2022-09-09T00:58:00.000Z,1008.69
2022-09-09T01:00:00.000Z,1008.69
2022-09-09T01:02:00.000Z,1009.03
2022-09-09T01:04:00.000Z,1009.03
2022-09-09T01:06:00.000Z,1008.69
2022-09-09T01:08:00.000Z,1008.69
2022-09-09T01:10:00.000Z,1008.69
2022-09-09T01:12:00.000Z,1008.69
2022-09-09T01:14:00.000Z,1008.69
2022-09-09T01:16:00.000Z,1008.69
2022-09-09T01:18:00.000Z,1008.69
2022-09-09T01:20:00.000Z,1008.69
2022-09-09T01:22:00.000Z,1008.69
2022-09-09T01:24:00.000Z,1008.69
2022-09-09T01:26:00.000Z,1009.03
2022-09-09T01:28:00.000Z,1009.03
2022-09-09T01:30:00.000Z,1009.03
2022-09-09T01:32:00.000Z,1009.03
2022-09-09T01:34:00.000Z,1009.03
2022-09-09T01:36:00.000Z,1009.03
2022-09-09T01:38:00.000Z,1009.03
2022-09-09T01:40:00.000Z,1009.03
2022-09-09T01:42:00.000Z,1009.03
2022-09-09T01:44:00.000Z,1009.03
2022-09-09T01:46:00.000Z,1008.69
2022-09-09T01:48:00.000Z,1008.69
2022-09-09T01:50:00.000Z,1008.69
2022-09-09T01:52:00.000Z,1008.69
2022-09-09T01:54:00.000Z,1008.69
2022-09-09T01:56:00.000Z,1008.69
2022-09-09T01:58:00.000Z,1008.69
2022-09-09T02:00:00.000Z,1008.69
2022-09-09T02:02:00.000Z,1009.03
2022-09-09T02:04:00.000Z,1009.03
2022-09-09T02:06:00.000Z,1009.03
2022-09-09T02:08:00.000Z,1009.03
2022-09-09T02:10:00.000Z,1009.03
2022-09-09T02:12:00.000Z,1008.69
2022-09-09T02:14:00.000Z,1008.69
2022-09-09T02:16:00.000Z,1008.69
2022-09-09T02:18:00.000Z,1008.69
2022-09-09T02:20:00.000Z,1008.69
2022-09-09T02:22:00.000Z,1008.69
2022-09-09T02:24:00.000Z,1008.69
2022-09-09T02:26:00.000Z,1008.69
2022-09-09T02:28:00.000Z,1008.69
2022-09-09T02:30:00.000Z,1008.69
2022-09-09T02:32:00.000Z,1008.69
2022-09-09T02:34:00.000Z,1008.69
2022-09-09T02:36:00.000Z,1008.69
2022-09-09T02:38:00.000Z,1008.69
2022-09-09T02:40:00.000Z,1008.69
2022-09-09T02:42:00.000Z,1008.69
2022-09-09T02:44:00.000Z,1008.69
2022-09-09T02:46:00.000Z,1008.69
2022-09-09T02:48:00.000Z,1008.69
2022-09-09T02:50:00.000Z,1008.69
2022-09-09T02:52:00.000Z,1008.69
2022-09-09T02:54:00.000Z,1008.69
2022-09-09T02:56:00.000Z,1008.69
2022-09-09T02:58:00.000Z,1008.69
2022-09-09T03:00:00.000Z,1008.69
2022-09-09T03:02:00.000Z,1008.69
2022-09-09T03:04:00.000Z,1008.69
2022-09-09T03:06:00.000Z,1009.03
2022-09-09T03:08:00.000Z,1009.03
2022-09-09T03:10:00.000Z,1009.03
2022-09-09T03:12:00.000Z,1008.69
2022-09-09T03:14:00.000Z,1008.69
2022-09-09T03:16:00.000Z,1009.03
2022-09-09T03:18:00.000Z,1009.03
2022-09-09T03:20:00.000Z,1009.03
2022-09-09T03:22:00.000Z,1009.03
2022-09-09T03:24:00.000Z,1009.03
2022-09-09T03:26:00.000Z,1009.03
2022-09-09T03:28:00.000Z,1009.03
2022-09-09T03:30:00.000Z,1009.03
2022-09-09T03:32:00.000Z,1009.03
2022-09-09T03:34:00.000Z,1009.03
2022-09-09T03:36:00.000Z,1009.03
2022-09-09T03:38:00.000Z,1009.03
2022-09-09T03:40:00.000Z,1009.03
2022-09-09T03:42:00.000Z,1009.03
2022-09-09T03:44:00.000Z,1009.03
2022-09-09T03:46:00.000Z,1009.03
2022-09-09T03:48:00.000Z,1009.03
2022-09-09T03:50:00.000Z,1009.03
2022-09-09T03:52:00.000Z,1008.69
2022-09-09T03:54:00.000Z,1008.69
2022-09-09T03:56:00.000Z,1009.03
2022-09-09T03:58:00.000Z,1009.03
2022-09-09T04:00:00.000Z,1009.03
2022-09-09T04:02:00.000Z,1009.03
2022-09-09T04:04:00.000Z,1009.03
2022-09-09T04:06:00.000Z,1009.03
2022-09-09T04:08:00.000Z,1009.03
2022-09-09T04:10:00.000Z,1009.03
2022-09-09T04:12:00.000Z,1009.03
2022-09-09T04:14:00.000Z,1009.03
2022-09-09T04:16:00.000Z,1009.03
2022-09-09T04:18:00.000Z,1009.03
2022-09-09T04:20:00.000Z,1009.03
2022-09-09T04:22:00.000Z,1009.03
2022-09-09T04:24:00.000Z,1009.03
2022-09-09T04:26:00.000Z,1009.03
2022-09-09T04:28:00.000Z,1009.03
2022-09-09T04:30:00.000Z,1009.03
2022-09-09T04:32:00.000Z,1009.03
2022-09-09T04:34:00.000Z,1009.03
2022-09-09T04:36:00.000Z,1009.03
2022-09-09T04:38:00.000Z,1009.03
2022-09-09T04:40:00.000Z,1009.03
2022-09-09T04:42:00.000Z,1009.03
2022-09-09T04:44:00.000Z,1009.03
2022-09-09T04:46:00.000Z,1009.03
2022-09-09T04:48:00.000Z,1009.03
2022-09-09T04:50:00.000Z,1009.03
2022-09-09T04:52:00.000Z,1009.37
2022-09-09T04:54:00.000Z,1009.37
2022-09-09T04:56:00.000Z,1009.03
2022-09-09T04:58:00.000Z,1009.03
2022-09-09T05:00:00.000Z,1009.03
2022-09-09T05:02:00.000Z,1009.03
2022-09-09T05:04:00.000Z,1009.03
2022-09-09T05:06:00.000Z,1009.03
2022-09-09T05:08:00.000Z,1009.03
2022-09-09T05:10:00.000Z,1009.03
2022-09-09T05:12:00.000Z,1008.69
2022-09-09T05:14:00.000Z,1008.69
2022-09-09T05:16:00.000Z,1008.69
2022-09-09T05:18:00.000Z,1008.69
2022-09-09T05:20:00.000Z,1008.69
2022-09-09T05:22:00.000Z,1009.03
2022-09-09T05:24:00.000Z,1009.03
2022-09-09T05:26:00.000Z,1009.03
2022-09-09T05:28:00.000Z,1009.03
2022-09-09T05:30:00.000Z,1009.03
2022-09-09T05:32:00.000Z,1009.03
2022-09-09T05:34:00.000Z,1009.03
2022-09-09T05:36:00.000Z,1009.37
2022-09-09T05:38:00.000Z,1009.37
2022-09-09T05:40:00.000Z,1009.37
2022-09-09T05:42:00.000Z,1009.03
2022-09-09T05:44:00.000Z,1009.03
2022-09-09T05:46:00.000Z,1009.03
2022-09-09T05:48:00.000Z,1009.03
2022-09-09T05:50:00.000Z,1009.03
2022-09-09T05:52:00.000Z,1009.37
2022-09-09T05:54:00.000Z,1009.37
2022-09-09T05:56:00.000Z,1009.03
2022-09-09T05:58:00.000Z,1009.03
2022-09-09T06:00:00.000Z,1009.03
2022-09-09T06:02:00.000Z,1009.37
2022-09-09T06:04:00.000Z,1009.37
2022-09-09T06:06:00.000Z,1009.37
2022-09-09T06:08:00.000Z,1009.37
2022-09-09T06:10:00.000Z,1009.37
2022-09-09T06:12:00.000Z,1009.71
2022-09-09T06:14:00.000Z,1009.71
2022-09-09T06:16:00.000Z,1009.37
2022-09-09T06:18:00.000Z,1009.37
2022-09-09T06:20:00.000Z,1009.37
2022-09-09T06:22:00.000Z,1009.71
2022-09-09T06:24:00.000Z,1009.71
2022-09-09T06:26:00.000Z,1009.71
2022-09-09T06:28:00.000Z,1009.71
2022-09-09T06:30:00.000Z,1009.71
2022-09-09T06:32:00.000Z,1009.71
2022-09-09T06:34:00.000Z,1009.71
2022-09-09T06:36:00.000Z,1009.71
2022-09-09T06:38:00.000Z,1009.71
2022-09-09T06:40:00.000Z,1009.71
2022-09-09T06:42:00.000Z,1009.71
2022-09-09T06:44:00.000Z,1009.71
2022-09-09T06:46:00.000Z,1009.71
2022-09-09T06:48:00.000Z,1009.71
2022-09-09T06:50:00.000Z,1009.71
2022-09-09T06:52:00.000Z,1009.71
2022-09-09T06:54:00.000Z,1009.71
2022-09-09T06:56:00.000Z,1009.71
2022-09-09T06:58:00.000Z,1009.71
2022-09-09T07:00:00.000Z,1009.71
2022-09-09T07:02:00.000Z,1009.71
2022-09-09T07:04:00.000Z,1009.71
2022-09-09T07:06:00.000Z,1009.71
2022-09-09T07:08:00.000Z,1009.71
2022-09-09T07:10:00.000Z,1009.71
2022-09-09T07:12:00.000Z,1009.37
2022-09-09T07:14:00.000Z,1009.37
2022-09-09T07:16:00.000Z,1009.37
2022-09-09T07:18:00.000Z,1009.37
2022-09-09T07:20:00.000Z,1009.37
2022-09-09T07:22:00.000Z,1009.71
2022-09-09T07:24:00.000Z,1009.71
2022-09-09T07:26:00.000Z,1009.71
2022-09-09T07:28:00.000Z,1009.71
2022-09-09T07:30:00.000Z,1009.71
2022-09-09T07:32:00.000Z,1009.71
2022-09-09T07:34:00.000Z,1009.71
2022-09-09T07:36:00.000Z,1009.71
2022-09-09T07:38:00.000Z,1009.71
2022-09-09T07:40:00.000Z,1009.71
2022-09-09T07:42:00.000Z,1009.71
2022-09-09T07:44:00.000Z,1009.71
2022-09-09T07:46:00.000Z,1009.71
2022-09-09T07:48:00.000Z,1009.71
2022-09-09T07:50:00.000Z,1009.71
2022-09-09T07:52:00.000Z,1009.71
2022-09-09T07:54:00.000Z,1009.71
2022-09-09T07:56:00.000Z,1009.71
2022-09-09T07:58:00.000Z,1009.71
2022-09-09T08:00:00.000Z,1009.71
2022-09-09T08:02:00.000Z,1009.71
2022-09-09T08:04:00.000Z,1009.71
2022-09-09T08:06:00.000Z,1009.71
2022-09-09T08:08:00.000Z,1009.71
2022-09-09T08:10:00.000Z,1009.71
2022-09-09T08:12:00.000Z,1009.71
2022-09-09T08:14:00.000Z,1009.71
2022-09-09T08:16:00.000Z,1009.71
2022-09-09T08:18:00.000Z,1009.71
2022-09-09T08:20:00.000Z,1009.71
2022-09-09T08:22:00.000Z,1010.04
2022-09-09T08:24:00.000Z,1010.04
2022-09-09T08:26:00.000Z,1010.04
2022-09-09T08:28:00.000Z,1010.04
2022-09-09T08:30:00.000Z,1010.04
2022-09-09T08:32:00.000Z,1010.04
2022-09-09T08:34:00.000Z,1010.04
2022-09-09T08:36:00.000Z,1010.04
2022-09-09T08:38:00.000Z,1010.04
2022-09-09T08:40:00.000Z,1010.04
2022-09-09T08:42:00.000Z,1010.38
2022-09-09T08:44:00.000Z,1010.38
2022-09-09T08:46:00.000Z,1010.04
2022-09-09T08:48:00.000Z,1010.04
2022-09-09T08:50:00.000Z,1010.04
2022-09-09T08:52:00.000Z,1010.04
2022-09-09T08:54:00.000Z,1010.04
2022-09-09T08:56:00.000Z,1010.38
2022-09-09T08:58:00.000Z,1010.38
2022-09-09T09:00:00.000Z,1010.38
2022-09-09T09:02:00.000Z,1010.38
2022-09-09T09:04:00.000Z,1010.38
2022-09-09T09:06:00.000Z,1010.38
2022-09-09T09:08:00.000Z,1010.38
2022-09-09T09:10:00.000Z,1010.38
2022-09-09T09:12:00.000Z,1010.04
2022-09-09T09:14:00.000Z,1010.04
2022-09-09T09:16:00.000Z,1010.38
2022-09-09T09:18:00.000Z,1010.38
2022-09-09T09:20:00.000Z,1010.38
2022-09-09T09:22:00.000Z,1010.04
2022-09-09T09:24:00.000Z,1010.04
2022-09-09T09:26:00.000Z,1010.38
2022-09-09T09:28:00.000Z,1010.38
2022-09-09T09:32:00.000Z,1010.04
2022-09-09T09:34:00.000Z,1010.04
2022-09-09T09:36:00.000Z,1010.38
2022-09-09T09:42:00.000Z,1010.38
2022-09-09T09:44:00.000Z,1010.38
2022-09-09T09:46:00.000Z,1010.04
2022-09-09T09:48:00.000Z,1010.04
2022-09-09T09:50:00.000Z,1010.04
2022-09-09T09:52:00.000Z,1010.04
2022-09-09T09:54:00.000Z,1010.04
2022-09-09T09:56:00.000Z,1010.38
2022-09-09T09:58:00.000Z,1010.38
2022-09-09T10:00:00.000Z,1010.38
2022-09-09T10:02:00.000Z,1010.38
2022-09-09T10:04:00.000Z,1010.38
2022-09-09T10:06:00.000Z,1010.38
2022-09-09T10:08:00.000Z,1010.38
2022-09-09T10:10:00.000Z,1010.38
2022-09-09T10:12:00.000Z,1010.04
2022-09-09T10:14:00.000Z,1010.04
2022-09-09T10:16:00.000Z,1010.38
2022-09-09T10:18:00.000Z,1010.38
2022-09-09T10:20:00.000Z,1010.38
2022-09-09T10:22:00.000Z,1010.04
2022-09-09T10:24:00.000Z,1010.04
2022-09-09T10:26:00.000Z,1010.38
2022-09-09T10:28:00.000Z,1010.38
2022-09-09T10:30:00.000Z,1010.38
2022-09-09T10:32:00.000Z,1010.04
2022-09-09T10:34:00.000Z,1010.04
2022-09-09T10:36:00.000Z,1010.04
2022-09-09T10:38:00.000Z,1010.04
2022-09-09T10:40:00.000Z,1010.04
2022-09-09T10:42:00.000Z,1010.04
2022-09-09T10:44:00.000Z,1010.04
2022-09-09T10:46:00.000Z,1010.04
2022-09-09T10:48:00.000Z,1010.04
2022-09-09T10:50:00.000Z,1010.04
2022-09-09T10:52:00.000Z,1010.04
2022-09-09T10:54:00.000Z,1010.04
2022-09-09T10:56:00.000Z,1009.71
2022-09-09T10:58:00.000Z,1009.71
2022-09-09T11:00:00.000Z,1009.71
2022-09-09T11:02:00.000Z,1010.04
2022-09-09T11:04:00.000Z,1010.04
2022-09-09T11:06:00.000Z,1010.04
2022-09-09T11:08:00.000Z,1010.04
2022-09-09T11:10:00.000Z,1010.04
2022-09-09T11:12:00.000Z,1010.38
2022-09-09T11:14:00.000Z,1010.38
2022-09-09T11:16:00.000Z,1010.38
2022-09-09T11:18:00.000Z,1010.38
2022-09-09T11:20:00.000Z,1010.38
2022-09-09T11:22:00.000Z,1010.38
2022-09-09T11:24:00.000Z,1010.38
2022-09-09T11:26:00.000Z,1010.38
2022-09-09T11:28:00.000Z,1010.38
2022-09-09T11:30:00.000Z,1010.38
2022-09-09T11:32:00.000Z,1010.38
2022-09-09T11:34:00.000Z,1010.38
2022-09-09T11:36:00.000Z,1010.38
2022-09-09T11:38:00.000Z,1010.38
2022-09-09T11:40:00.000Z,1010.38
2022-09-09T11:42:00.000Z,1010.38
2022-09-09T11:44:00.000Z,1010.38
2022-09-09T11:46:00.000Z,1010.38
2022-09-09T11:48:00.000Z,1010.38
2022-09-09T11:50:00.000Z,1010.38
2022-09-09T11:52:00.000Z,1010.04
2022-09-09T11:54:00.000Z,1010.04
2022-09-09T11:56:00.000Z,1010.04
2022-09-09T11:58:00.000Z,1010.04
2022-09-09T12:00:00.000Z,1010.04
2022-09-09T12:02:00.000Z,1010.38
2022-09-09T12:04:00.000Z,1010.38
2022-09-09T12:06:00.000Z,1010.04
2022-09-09T12:08:00.000Z,1010.04
2022-09-09T12:10:00.000Z,1010.04
2022-09-09T12:12:00.000Z,1010.04
2022-09-09T12:14:00.000Z,1010.04
2022-09-09T12:16:00.000Z,1010.38
2022-09-09T12:18:00.000Z,1010.38
2022-09-09T12:20:00.000Z,1010.38
2022-09-09T12:22:00.000Z,1010.38
2022-09-09T12:24:00.000Z,1010.38
2022-09-09T12:26:00.000Z,1010.38
2022-09-09T12:28:00.000Z,1010.38
2022-09-09T12:30:00.000Z,1010.38
2022-09-09T12:32:00.000Z,1010.04
2022-09-09T12:34:00.000Z,1010.04
2022-09-09T12:36:00.000Z,1010.04
2022-09-09T12:38:00.000Z,1010.04
2022-09-09T12:40:00.000Z,1010.04
2022-09-09T12:42:00.000Z,1010.04
2022-09-09T12:44:00.000Z,1010.04
2022-09-09T12:46:00.000Z,1010.04
2022-09-09T12:48:00.000Z,1010.04
2022-09-09T12:50:00.000Z,1010.04
2022-09-09T12:52:00.000Z,1010.04
2022-09-09T12:54:00.000Z,1010.04
2022-09-09T12:56:00.000Z,1010.04
2022-09-09T12:58:00.000Z,1010.04
2022-09-09T13:00:00.000Z,1010.04
2022-09-09T13:02:00.000Z,1010.04
2022-09-09T13:04:00.000Z,1010.04
2022-09-09T13:06:00.000Z,1009.71
2022-09-09T13:08:00.000Z,1009.71
2022-09-09T13:10:00.000Z,1009.71
2022-09-09T13:12:00.000Z,1009.71
2022-09-09T13:14:00.000Z,1009.71
2022-09-09T13:16:00.000Z,1010.04
2022-09-09T13:18:00.000Z,1010.04
2022-09-09T13:20:00.000Z,1010.04
2022-09-09T13:22:00.000Z,1010.04
2022-09-09T13:24:00.000Z,1010.04
2022-09-09T13:26:00.000Z,1010.38
2022-09-09T13:28:00.000Z,1010.38
2022-09-09T13:30:00.000Z,1010.38
2022-09-09T13:32:00.000Z,1010.38
2022-09-09T13:34:00.000Z,1010.38
2022-09-09T13:36:00.000Z,1010.04
2022-09-09T13:38:00.000Z,1010.04
2022-09-09T13:40:00.000Z,1010.04
2022-09-09T13:42:00.000Z,1010.38
2022-09-09T13:44:00.000Z,1010.38
2022-09-09T13:46:00.000Z,1010.04
2022-09-09T13:48:00.000Z,1010.04
2022-09-09T13:50:00.000Z,1010.04
2022-09-09T13:52:00.000Z,1010.04
2022-09-09T13:54:00.000Z,1010.04
2022-09-09T13:56:00.000Z,1010.38
2022-09-09T13:58:00.000Z,1010.38
2022-09-09T14:00:00.000Z,1010.38
2022-09-09T14:02:00.000Z,1010.72
2022-09-09T14:04:00.000Z,1010.72
2022-09-09T14:06:00.000Z,1010.38
2022-09-09T14:08:00.000Z,1010.38
2022-09-09T14:10:00.000Z,1010.38
2022-09-09T14:12:00.000Z,1010.38
2022-09-09T14:14:00.000Z,1010.38
2022-09-09T14:16:00.000Z,1010.38
2022-09-09T14:18:00.000Z,1010.38
2022-09-09T14:20:00.000Z,1010.38
2022-09-09T14:22:00.000Z,1010.38
2022-09-09T14:24:00.000Z,1010.38
2022-09-09T14:26:00.000Z,1010.04
2022-09-09T14:28:00.000Z,1010.04
2022-09-09T14:30:00.000Z,1010.04
2022-09-09T14:32:00.000Z,1010.04
2022-09-09T14:34:00.000Z,1010.04
2022-09-09T14:36:00.000Z,1010.04
2022-09-09T14:38:00.000Z,1010.04
2022-09-09T14:40:00.000Z,1010.04
2022-09-09T14:42:00.000Z,1010.04
2022-09-09T14:44:00.000Z,1010.04
2022-09-09T14:46:00.000Z,1010.04
2022-09-09T14:48:00.000Z,1010.04
2022-09-09T14:50:00.000Z,1010.04
2022-09-09T14:52:00.000Z,1010.04
2022-09-09T14:54:00.000Z,1010.04
2022-09-09T14:56:00.000Z,1009.71
2022-09-09T14:58:00.000Z,1009.71
2022-09-09T15:00:00.000Z,1009.71
2022-09-09T15:02:00.000Z,1010.04
2022-09-09T15:04:00.000Z,1010.04
2022-09-09T15:06:00.000Z,1009.71
2022-09-09T15:08:00.000Z,1009.71
2022-09-09T15:10:00.000Z,1009.71
2022-09-09T15:12:00.000Z,1009.71
2022-09-09T15:14:00.000Z,1009.71
2022-09-09T15:16:00.000Z,1009.71
2022-09-09T15:18:00.000Z,1009.71
2022-09-09T15:20:00.000Z,1009.71
2022-09-09T15:22:00.000Z,1010.04
2022-09-09T15:24:00.000Z,1010.04
2022-09-09T15:26:00.000Z,1009.71
2022-09-09T15:28:00.000Z,1009.71
2022-09-09T15:30:00.000Z,1009.71
2022-09-09T15:32:00.000Z,1009.71
2022-09-09T15:34:00.000Z,1009.71
2022-09-09T15:36:00.000Z,1010.04
2022-09-09T15:38:00.000Z,1010.04
2022-09-09T15:40:00.000Z,1010.04
2022-09-09T15:42:00.000Z,1010.04
2022-09-09T15:44:00.000Z,1010.04
2022-09-09T15:46:00.000Z,1010.04
2022-09-09T15:48:00.000Z,1010.04
2022-09-09T15:50:00.000Z,1010.04
2022-09-09T15:52:00.000Z,1010.04
2022-09-09T15:54:00.000Z,1010.04
2022-09-09T15:56:00.000Z,1010.04
2022-09-09T15:58:00.000Z,1010.04
2022-09-09T16:00:00.000Z,1010.04
2022-09-09T16:02:00.000Z,1010.04
2022-09-09T16:04:00.000Z,1010.04
2022-09-09T16:06:00.000Z,1010.04
2022-09-09T16:08:00.000Z,1010.04
2022-09-09T16:10:00.000Z,1010.04
2022-09-09T16:12:00.000Z,1010.04
2022-09-09T16:14:00.000Z,1010.04
2022-09-09T16:16:00.000Z,1010.04
2022-09-09T16:18:00.000Z,1010.04
2022-09-09T16:20:00.000Z,1010.04
2022-09-09T16:22:00.000Z,1010.38
2022-09-09T16:24:00.000Z,1010.38
2022-09-09T16:26:00.000Z,1009.71
2022-09-09T16:28:00.000Z,1009.71
2022-09-09T16:30:00.000Z,1009.71
2022-09-09T16:32:00.000Z,1010.04
2022-09-09T16:34:00.000Z,1010.04
2022-09-09T16:36:00.000Z,1009.71
2022-09-09T16:38:00.000Z,1009.71
2022-09-09T16:40:00.000Z,1009.71
2022-09-09T16:42:00.000Z,1010.04
2022-09-09T16:44:00.000Z,1010.04
2022-09-09T16:46:00.000Z,1010.04
2022-09-09T16:48:00.000Z,1010.04
2022-09-09T16:50:00.000Z,1010.04
2022-09-09T16:52:00.000Z,1009.71
2022-09-09T16:54:00.000Z,1009.71
2022-09-09T16:56:00.000Z,1009.71
2022-09-09T16:58:00.000Z,1009.71
2022-09-09T17:00:00.000Z,1009.71
2022-09-09T17:02:00.000Z,1010.04
2022-09-09T17:04:00.000Z,1010.04
2022-09-09T17:06:00.000Z,1009.71
2022-09-09T17:08:00.000Z,1009.71
2022-09-09T17:10:00.000Z,1009.71
2022-09-09T17:12:00.000Z,1009.71
2022-09-09T17:14:00.000Z,1009.71
2022-09-09T17:16:00.000Z,1009.71
2022-09-09T17:18:00.000Z,1009.71
2022-09-09T17:20:00.000Z,1009.71
2022-09-09T17:22:00.000Z,1009.71
2022-09-09T17:24:00.000Z,1009.71
2022-09-09T17:26:00.000Z,1009.71
2022-09-09T17:28:00.000Z,1009.71
2022-09-09T17:30:00.000Z,1009.71
2022-09-09T17:32:00.000Z,1009.71
2022-09-09T17:34:00.000Z,1009.71
2022-09-09T17:36:00.000Z,1009.71
2022-09-09T17:38:00.000Z,1009.71
2022-09-09T17:40:00.000Z,1009.71
2022-09-09T17:42:00.000Z,1010.04
2022-09-09T17:44:00.000Z,1010.04
2022-09-09T17:46:00.000Z,1009.71
2022-09-09T17:48:00.000Z,1009.71
2022-09-09T17:50:00.000Z,1009.71
2022-09-09T17:52:00.000Z,1009.71
2022-09-09T17:54:00.000Z,1009.71
2022-09-09T17:56:00.000Z,1009.71
2022-09-09T17:58:00.000Z,1009.71
2022-09-09T18:00:00.000Z,1009.71
2022-09-09T18:02:00.000Z,1010.04
2022-09-09T18:04:00.000Z,1010.04
2022-09-09T18:06:00.000Z,1010.38
2022-09-09T18:08:00.000Z,1010.38
2022-09-09T18:10:00.000Z,1010.38
2022-09-09T18:12:00.000Z,1010.04
2022-09-09T18:14:00.000Z,1010.04
2022-09-09T18:16:00.000Z,1010.04
2022-09-09T18:18:00.000Z,1010.04
2022-09-09T18:20:00.000Z,1010.04
2022-09-09T18:22:00.000Z,1010.04
2022-09-09T18:24:00.000Z,1010.04
2022-09-09T18:26:00.000Z,1010.38
2022-09-09T18:28:00.000Z,1010.38
2022-09-09T18:30:00.000Z,1010.38
2022-09-09T18:32:00.000Z,1010.04
2022-09-09T18:34:00.000Z,1010.04
2022-09-09T18:36:00.000Z,1010.04
2022-09-09T18:38:00.000Z,1010.04
2022-09-09T18:40:00.000Z,1010.04
2022-09-09T18:42:00.000Z,1010.38
2022-09-09T18:44:00.000Z,1010.38
2022-09-09T18:46:00.000Z,1010.38
2022-09-09T18:48:00.000Z,1010.38
2022-09-09T18:50:00.000Z,1010.38
2022-09-09T18:52:00.000Z,1010.38
2022-09-09T18:54:00.000Z,1010.38
2022-09-09T18:56:00.000Z,1010.38
2022-09-09T18:58:00.000Z,1010.38
2022-09-09T19:00:00.000Z,1010.38
2022-09-09T19:02:00.000Z,1010.38
2022-09-09T19:04:00.000Z,1010.38
2022-09-09T19:06:00.000Z,1010.38
2022-09-09T19:08:00.000Z,1010.38
2022-09-09T19:10:00.000Z,1010.38
2022-09-09T19:12:00.000Z,1010.38
2022-09-09T19:14:00.000Z,1010.38
2022-09-09T19:16:00.000Z,1010.38
2022-09-09T19:18:00.000Z,1010.38
2022-09-09T19:20:00.000Z,1010.38
2022-09-09T19:22:00.000Z,1010.38
2022-09-09T19:24:00.000Z,1010.38
2022-09-09T19:26:00.000Z,1010.72
2022-09-09T19:28:00.000Z,1010.72
2022-09-09T19:30:00.000Z,1010.72
2022-09-09T19:34:00.000Z,1010.38
2022-09-09T19:36:00.000Z,1010.38
2022-09-09T19:38:00.000Z,1010.38
2022-09-09T19:40:00.000Z,1010.38
2022-09-09T19:42:00.000Z,1010.72
2022-09-09T19:44:00.000Z,1010.72
2022-09-09T19:46:00.000Z,1010.38
2022-09-09T19:48:00.000Z,1010.38
2022-09-09T19:50:00.000Z,1010.38
2022-09-09T19:52:00.000Z,1010.38
2022-09-09T19:54:00.000Z,1010.38
2022-09-09T19:56:00.000Z,1010.38
2022-09-09T19:58:00.000Z,1010.38
2022-09-09T20:00:00.000Z,1010.38
2022-09-09T20:02:00.000Z,1010.38
2022-09-09T20:04:00.000Z,1010.38
2022-09-09T20:06:00.000Z,1010.72
2022-09-09T20:08:00.000Z,1010.72
2022-09-09T20:10:00.000Z,1010.72
2022-09-09T20:12:00.000Z,1010.38
2022-09-09T20:14:00.000Z,1010.38
2022-09-09T20:16:00.000Z,1010.72
2022-09-09T20:18:00.000Z,1010.72
2022-09-09T20:20:00.000Z,1010.72
2022-09-09T20:22:00.000Z,1011.06
2022-09-09T20:24:00.000Z,1011.06
2022-09-09T20:26:00.000Z,1011.06
2022-09-09T20:28:00.000Z,1011.06
2022-09-09T20:30:00.000Z,1011.06
2022-09-09T20:32:00.000Z,1011.06
2022-09-09T20:34:00.000Z,1011.06
2022-09-09T20:36:00.000Z,1011.06
2022-09-09T20:38:00.000Z,1011.06
2022-09-09T20:40:00.000Z,1011.06
2022-09-09T20:42:00.000Z,1011.4
2022-09-09T20:44:00.000Z,1011.4
2022-09-09T20:46:00.000Z,1011.06
2022-09-09T20:48:00.000Z,1011.06
2022-09-09T20:50:00.000Z,1011.06
2022-09-09T20:52:00.000Z,1011.4
2022-09-09T20:54:00.000Z,1011.4
2022-09-09T20:56:00.000Z,1011.4
2022-09-09T20:58:00.000Z,1011.4
2022-09-09T21:00:00.000Z,1011.4
2022-09-09T21:02:00.000Z,1011.06
2022-09-09T21:04:00.000Z,1011.06
2022-09-09T21:06:00.000Z,1011.06
2022-09-09T21:08:00.000Z,1011.06
2022-09-09T21:10:00.000Z,1011.06
2022-09-09T21:12:00.000Z,1011.06
2022-09-09T21:14:00.000Z,1011.06
2022-09-09T21:16:00.000Z,1011.06
2022-09-09T21:18:00.000Z,1011.06
2022-09-09T21:20:00.000Z,1011.06
2022-09-09T21:22:00.000Z,1011.06
2022-09-09T21:24:00.000Z,1011.06
2022-09-09T21:26:00.000Z,1010.72
2022-09-09T21:28:00.000Z,1010.72
2022-09-09T21:30:00.000Z,1010.72
2022-09-09T21:32:00.000Z,1011.06
2022-09-09T21:34:00.000Z,1011.06
2022-09-09T21:36:00.000Z,1011.06
2022-09-09T21:38:00.000Z,1011.06
2022-09-09T21:40:00.000Z,1011.06
2022-09-09T21:42:00.000Z,1011.06
2022-09-09T21:44:00.000Z,1011.06
2022-09-09T21:46:00.000Z,1011.06
2022-09-09T21:48:00.000Z,1011.06
2022-09-09T21:50:00.000Z,1011.06
2022-09-09T21:52:00.000Z,1011.06
2022-09-09T21:54:00.000Z,1011.06
2022-09-09T21:56:00.000Z,1011.06
2022-09-09T21:58:00.000Z,1011.06
2022-09-09T22:00:00.000Z,1011.06
2022-09-09T22:02:00.000Z,1011.06
2022-09-09T22:04:00.000Z,1011.06
2022-09-09T22:06:00.000Z,1011.06
2022-09-09T22:08:00.000Z,1011.06
2022-09-09T22:10:00.000Z,1011.06
2022-09-09T22:12:00.000Z,1011.06
2022-09-09T22:14:00.000Z,1011.06
2022-09-09T22:16:00.000Z,1010.72
2022-09-09T22:18:00.000Z,1010.72
2022-09-09T22:20:00.000Z,1010.72
2022-09-09T22:22:00.000Z,1011.06
2022-09-09T22:24:00.000Z,1011.06
2022-09-09T22:26:00.000Z,1011.06
2022-09-09T22:28:00.000Z,1011.06
2022-09-09T22:30:00.000Z,1011.06
2022-09-09T22:32:00.000Z,1011.06
2022-09-09T22:34:00.000Z,1011.06
2022-09-09T22:36:00.000Z,1010.72
2022-09-09T22:38:00.000Z,1010.72
2022-09-09T22:40:00.000Z,1010.72
2022-09-09T22:42:00.000Z,1011.06
2022-09-09T22:44:00.000Z,1011.06
2022-09-09T22:46:00.000Z,1011.06
2022-09-09T22:48:00.000Z,1011.06
2022-09-09T22:50:00.000Z,1011.06
2022-09-09T22:52:00.000Z,1010.72
2022-09-09T22:54:00.000Z,1010.72
2022-09-09T22:56:00.000Z,1011.06
2022-09-09T22:58:00.000Z,1011.06
2022-09-09T23:00:00.000Z,1011.06
2022-09-09T23:02:00.000Z,1010.72
2022-09-09T23:04:00.000Z,1010.72
2022-09-09T23:06:00.000Z,1011.06
2022-09-09T23:08:00.000Z,1011.06
2022-09-09T23:10:00.000Z,1011.06
2022-09-09T23:12:00.000Z,1011.06
2022-09-09T23:14:00.000Z,1011.06
2022-09-09T23:16:00.000Z,1011.06
2022-09-09T23:18:00.000Z,1011.06
2022-09-09T23:20:00.000Z,1011.06
2022-09-09T23:22:00.000Z,1011.06
2022-09-09T23:24:00.000Z,1011.06
2022-09-09T23:26:00.000Z,1010.72
2022-09-09T23:28:00.000Z,1010.72
2022-09-09T23:30:00.000Z,1010.72
2022-09-09T23:32:00.000Z,1011.06
2022-09-09T23:34:00.000Z,1011.06
2022-09-09T23:36:00.000Z,1010.72
2022-09-09T23:38:00.000Z,1010.72
2022-09-09T23:40:00.000Z,1010.72
2022-09-09T23:42:00.000Z,1011.06
2022-09-09T23:44:00.000Z,1011.06
2022-09-09T23:46:00.000Z,1011.06
2022-09-09T23:48:00.000Z,1011.06
2022-09-09T23:50:00.000Z,1011.06
2022-09-09T23:52:00.000Z,1011.06
2022-09-09T23:54:00.000Z,1011.06
2022-09-09T23:56:00.000Z,1010.72
2022-09-09T23:58:00.000Z,1010.72
